sensor_id;sensor_type;location;lat;lon;timestamp;P1;durP1;ratioP1;P2;durP2;ratioP2
14681;SDS011;7429;52.498;13.480;2023-05-07T00:00:37;20.57;;;18.33;;
14681;SDS011;7429;52.498;13.480;2023-05-07T00:03:41;19.97;;;17.07;;
14681;SDS011;7429;52.498;13.480;2023-05-07T00:06:45;20.10;;;18.00;;
14681;SDS011;7429;52.498;13.480;2023-05-07T00:09:48;25.67;;;18.40;;
14681;SDS011;7429;52.498;13.480;2023-05-07T00:12:51;19.87;;;17.83;;
14681;SDS011;7429;52.498;13.480;2023-05-07T00:15:55;20.57;;;16.93;;
14681;SDS011;7429;52.498;13.480;2023-05-07T00:18:58;18.77;;;16.83;;
14681;SDS011;7429;52.498;13.480;2023-05-07T00:22:01;18.43;;;16.57;;
14681;SDS011;7429;52.498;13.480;2023-05-07T00:25:05;19.23;;;17.20;;
14681;SDS011;7429;52.498;13.480;2023-05-07T00:28:09;17.80;;;15.83;;
14681;SDS011;7429;52.498;13.480;2023-05-07T00:31:13;19.07;;;17.03;;
14681;SDS011;7429;52.498;13.480;2023-05-07T00:34:16;21.27;;;16.17;;
14681;SDS011;7429;52.498;13.480;2023-05-07T00:37:19;18.63;;;16.67;;
14681;SDS011;7429;52.498;13.480;2023-05-07T00:40:22;20.97;;;16.43;;
14681;SDS011;7429;52.498;13.480;2023-05-07T00:43:26;18.73;;;16.63;;
14681;SDS011;7429;52.498;13.480;2023-05-07T00:46:31;21.53;;;17.20;;
14681;SDS011;7429;52.498;13.480;2023-05-07T00:49:37;25.10;;;17.83;;
14681;SDS011;7429;52.498;13.480;2023-05-07T00:52:42;21.43;;;16.67;;
14681;SDS011;7429;52.498;13.480;2023-05-07T00:55:46;21.33;;;16.10;;
14681;SDS011;7429;52.498;13.480;2023-05-07T00:58:49;20.27;;;16.60;;
14681;SDS011;7429;52.498;13.480;2023-05-07T01:01:53;19.57;;;17.53;;
14681;SDS011;7429;52.498;13.480;2023-05-07T01:04:57;19.17;;;15.77;;
14681;SDS011;7429;52.498;13.480;2023-05-07T01:08:01;19.47;;;16.90;;
14681;SDS011;7429;52.498;13.480;2023-05-07T01:11:04;24.07;;;19.30;;
14681;SDS011;7429;52.498;13.480;2023-05-07T01:14:09;20.53;;;17.17;;
14681;SDS011;7429;52.498;13.480;2023-05-07T01:17:14;22.53;;;17.63;;
14681;SDS011;7429;52.498;13.480;2023-05-07T01:20:19;20.63;;;17.50;;
14681;SDS011;7429;52.498;13.480;2023-05-07T01:23:26;20.47;;;16.93;;
14681;SDS011;7429;52.498;13.480;2023-05-07T01:26:30;21.40;;;16.80;;
14681;SDS011;7429;52.498;13.480;2023-05-07T01:29:34;17.47;;;15.67;;
14681;SDS011;7429;52.498;13.480;2023-05-07T01:32:38;18.63;;;15.87;;
14681;SDS011;7429;52.498;13.480;2023-05-07T01:35:46;20.97;;;15.97;;
14681;SDS011;7429;52.498;13.480;2023-05-07T01:38:55;17.83;;;15.23;;
14681;SDS011;7429;52.498;13.480;2023-05-07T01:42:00;20.47;;;16.60;;
14681;SDS011;7429;52.498;13.480;2023-05-07T01:45:04;18.30;;;16.33;;
14681;SDS011;7429;52.498;13.480;2023-05-07T01:48:09;17.07;;;15.23;;
14681;SDS011;7429;52.498;13.480;2023-05-07T01:51:14;19.20;;;16.20;;
14681;SDS011;7429;52.498;13.480;2023-05-07T01:54:19;21.37;;;16.47;;
14681;SDS011;7429;52.498;13.480;2023-05-07T01:57:29;16.90;;;15.27;;
14681;SDS011;7429;52.498;13.480;2023-05-07T02:00:32;19.77;;;15.33;;
14681;SDS011;7429;52.498;13.480;2023-05-07T02:03:37;18.13;;;15.17;;
14681;SDS011;7429;52.498;13.480;2023-05-07T02:06:48;17.03;;;15.23;;
14681;SDS011;7429;52.498;13.480;2023-05-07T02:09:53;21.00;;;16.67;;
14681;SDS011;7429;52.498;13.480;2023-05-07T02:12:57;22.13;;;16.03;;
14681;SDS011;7429;52.498;13.480;2023-05-07T02:16:01;18.13;;;16.03;;
14681;SDS011;7429;52.498;13.480;2023-05-07T02:19:04;20.10;;;16.67;;
14681;SDS011;7429;52.498;13.480;2023-05-07T02:22:09;20.53;;;17.23;;
14681;SDS011;7429;52.498;13.480;2023-05-07T02:25:14;19.63;;;15.97;;
14681;SDS011;7429;52.498;13.480;2023-05-07T02:28:17;17.63;;;15.63;;
14681;SDS011;7429;52.498;13.480;2023-05-07T02:31:27;21.03;;;16.00;;
14681;SDS011;7429;52.498;13.480;2023-05-07T02:34:30;20.70;;;15.83;;
14681;SDS011;7429;52.498;13.480;2023-05-07T02:37:34;16.87;;;15.07;;
14681;SDS011;7429;52.498;13.480;2023-05-07T02:40:38;18.80;;;15.57;;
14681;SDS011;7429;52.498;13.480;2023-05-07T02:43:42;18.80;;;15.77;;
14681;SDS011;7429;52.498;13.480;2023-05-07T02:46:45;18.00;;;16.03;;
14681;SDS011;7429;52.498;13.480;2023-05-07T02:49:48;18.73;;;15.87;;
14681;SDS011;7429;52.498;13.480;2023-05-07T02:52:52;18.83;;;16.03;;
14681;SDS011;7429;52.498;13.480;2023-05-07T02:55:57;18.50;;;16.50;;
14681;SDS011;7429;52.498;13.480;2023-05-07T02:59:01;16.87;;;14.70;;
14681;SDS011;7429;52.498;13.480;2023-05-07T03:02:08;19.43;;;17.17;;
14681;SDS011;7429;52.498;13.480;2023-05-07T03:05:11;17.87;;;16.07;;
14681;SDS011;7429;52.498;13.480;2023-05-07T03:08:16;20.67;;;16.10;;
14681;SDS011;7429;52.498;13.480;2023-05-07T03:11:21;19.03;;;16.27;;
14681;SDS011;7429;52.498;13.480;2023-05-07T03:14:24;18.33;;;15.43;;
14681;SDS011;7429;52.498;13.480;2023-05-07T03:17:28;19.07;;;15.87;;
14681;SDS011;7429;52.498;13.480;2023-05-07T03:20:31;18.50;;;15.57;;
14681;SDS011;7429;52.498;13.480;2023-05-07T03:23:34;20.40;;;17.03;;
14681;SDS011;7429;52.498;13.480;2023-05-07T03:26:39;23.27;;;21.17;;
14681;SDS011;7429;52.498;13.480;2023-05-07T03:29:42;18.45;;;16.75;;
14681;SDS011;7429;52.498;13.480;2023-05-07T03:32:45;20.27;;;18.33;;
14681;SDS011;7429;52.498;13.480;2023-05-07T03:35:48;19.63;;;17.63;;
14681;SDS011;7429;52.498;13.480;2023-05-07T03:38:56;18.93;;;16.83;;
14681;SDS011;7429;52.498;13.480;2023-05-07T03:42:09;23.80;;;19.17;;
14681;SDS011;7429;52.498;13.480;2023-05-07T03:45:13;20.87;;;16.93;;
14681;SDS011;7429;52.498;13.480;2023-05-07T03:48:21;18.27;;;15.37;;
14681;SDS011;7429;52.498;13.480;2023-05-07T03:51:26;18.67;;;15.83;;
14681;SDS011;7429;52.498;13.480;2023-05-07T03:54:29;20.90;;;16.50;;
14681;SDS011;7429;52.498;13.480;2023-05-07T03:57:34;19.00;;;16.50;;
14681;SDS011;7429;52.498;13.480;2023-05-07T04:00:38;19.47;;;16.60;;
14681;SDS011;7429;52.498;13.480;2023-05-07T04:03:57;17.80;;;14.57;;
14681;SDS011;7429;52.498;13.480;2023-05-07T04:07:00;19.50;;;15.43;;
14681;SDS011;7429;52.498;13.480;2023-05-07T04:10:06;18.33;;;15.10;;
14681;SDS011;7429;52.498;13.480;2023-05-07T04:13:15;16.83;;;15.17;;
14681;SDS011;7429;52.498;13.480;2023-05-07T04:16:18;17.10;;;14.60;;
14681;SDS011;7429;52.498;13.480;2023-05-07T04:19:21;19.17;;;16.97;;
14681;SDS011;7429;52.498;13.480;2023-05-07T04:22:27;17.53;;;15.20;;
14681;SDS011;7429;52.498;13.480;2023-05-07T04:25:31;19.23;;;17.60;;
14681;SDS011;7429;52.498;13.480;2023-05-07T04:28:43;20.63;;;18.93;;
14681;SDS011;7429;52.498;13.480;2023-05-07T04:31:46;17.60;;;15.77;;
14681;SDS011;7429;52.498;13.480;2023-05-07T04:34:50;16.40;;;14.80;;
14681;SDS011;7429;52.498;13.480;2023-05-07T04:37:53;19.67;;;17.80;;
14681;SDS011;7429;52.498;13.480;2023-05-07T04:40:56;17.07;;;15.50;;
14681;SDS011;7429;52.498;13.480;2023-05-07T04:44:02;16.43;;;14.10;;
14681;SDS011;7429;52.498;13.480;2023-05-07T04:47:08;15.93;;;12.27;;
14681;SDS011;7429;52.498;13.480;2023-05-07T04:50:12;15.27;;;12.37;;
14681;SDS011;7429;52.498;13.480;2023-05-07T04:53:16;13.63;;;12.13;;
14681;SDS011;7429;52.498;13.480;2023-05-07T04:56:20;13.87;;;12.40;;
14681;SDS011;7429;52.498;13.480;2023-05-07T04:59:24;13.27;;;11.80;;
14681;SDS011;7429;52.498;13.480;2023-05-07T05:02:28;13.90;;;12.60;;
14681;SDS011;7429;52.498;13.480;2023-05-07T05:05:31;13.40;;;12.03;;
14681;SDS011;7429;52.498;13.480;2023-05-07T05:08:36;12.23;;;10.67;;
14681;SDS011;7429;52.498;13.480;2023-05-07T05:11:39;13.00;;;11.00;;
14681;SDS011;7429;52.498;13.480;2023-05-07T05:14:44;11.73;;;10.50;;
14681;SDS011;7429;52.498;13.480;2023-05-07T05:17:48;11.57;;;10.47;;
14681;SDS011;7429;52.498;13.480;2023-05-07T05:20:52;15.13;;;11.50;;
14681;SDS011;7429;52.498;13.480;2023-05-07T05:23:55;13.40;;;11.90;;
14681;SDS011;7429;52.498;13.480;2023-05-07T05:26:59;13.33;;;11.83;;
14681;SDS011;7429;52.498;13.480;2023-05-07T05:30:07;14.20;;;12.20;;
14681;SDS011;7429;52.498;13.480;2023-05-07T05:33:12;13.60;;;10.67;;
14681;SDS011;7429;52.498;13.480;2023-05-07T05:36:16;17.10;;;12.70;;
14681;SDS011;7429;52.498;13.480;2023-05-07T05:39:21;16.63;;;12.07;;
14681;SDS011;7429;52.498;13.480;2023-05-07T05:42:24;14.27;;;12.13;;
14681;SDS011;7429;52.498;13.480;2023-05-07T05:45:30;14.80;;;12.97;;
14681;SDS011;7429;52.498;13.480;2023-05-07T05:48:33;14.53;;;11.80;;
14681;SDS011;7429;52.498;13.480;2023-05-07T05:51:38;13.43;;;11.50;;
14681;SDS011;7429;52.498;13.480;2023-05-07T05:54:42;14.30;;;11.50;;
14681;SDS011;7429;52.498;13.480;2023-05-07T05:57:45;14.73;;;12.30;;
14681;SDS011;7429;52.498;13.480;2023-05-07T06:00:51;14.00;;;12.50;;
14681;SDS011;7429;52.498;13.480;2023-05-07T06:03:57;13.17;;;11.83;;
14681;SDS011;7429;52.498;13.480;2023-05-07T06:07:01;14.67;;;12.10;;
14681;SDS011;7429;52.498;13.480;2023-05-07T06:10:05;13.30;;;11.10;;
14681;SDS011;7429;52.498;13.480;2023-05-07T06:13:10;13.60;;;11.03;;
14681;SDS011;7429;52.498;13.480;2023-05-07T06:16:15;14.10;;;12.70;;
14681;SDS011;7429;52.498;13.480;2023-05-07T06:19:19;14.80;;;12.27;;
14681;SDS011;7429;52.498;13.480;2023-05-07T06:22:27;17.43;;;11.90;;
14681;SDS011;7429;52.498;13.480;2023-05-07T06:25:30;15.33;;;12.20;;
14681;SDS011;7429;52.498;13.480;2023-05-07T06:28:34;12.70;;;11.17;;
14681;SDS011;7429;52.498;13.480;2023-05-07T06:31:42;13.03;;;11.63;;
14681;SDS011;7429;52.498;13.480;2023-05-07T06:34:45;14.33;;;12.10;;
14681;SDS011;7429;52.498;13.480;2023-05-07T06:37:49;14.10;;;11.20;;
14681;SDS011;7429;52.498;13.480;2023-05-07T06:40:57;13.57;;;10.83;;
14681;SDS011;7429;52.498;13.480;2023-05-07T06:44:00;13.03;;;11.70;;
14681;SDS011;7429;52.498;13.480;2023-05-07T06:47:11;13.87;;;11.23;;
14681;SDS011;7429;52.498;13.480;2023-05-07T06:50:19;13.23;;;11.93;;
14681;SDS011;7429;52.498;13.480;2023-05-07T06:53:23;11.87;;;10.70;;
14681;SDS011;7429;52.498;13.480;2023-05-07T06:56:29;11.73;;;10.47;;
14681;SDS011;7429;52.498;13.480;2023-05-07T06:59:33;13.13;;;10.30;;
14681;SDS011;7429;52.498;13.480;2023-05-07T07:02:37;12.07;;;9.63;;
14681;SDS011;7429;52.498;13.480;2023-05-07T07:05:41;10.73;;;9.63;;
14681;SDS011;7429;52.498;13.480;2023-05-07T07:08:45;12.50;;;11.30;;
14681;SDS011;7429;52.498;13.480;2023-05-07T07:11:50;12.83;;;11.53;;
14681;SDS011;7429;52.498;13.480;2023-05-07T07:14:53;11.67;;;10.40;;
14681;SDS011;7429;52.498;13.480;2023-05-07T07:17:58;11.17;;;10.03;;
14681;SDS011;7429;52.498;13.480;2023-05-07T07:21:02;11.97;;;8.33;;
14681;SDS011;7429;52.498;13.480;2023-05-07T07:24:06;14.17;;;13.17;;
14681;SDS011;7429;52.498;13.480;2023-05-07T07:27:09;9.97;;;9.07;;
14681;SDS011;7429;52.498;13.480;2023-05-07T07:30:13;10.90;;;9.80;;
14681;SDS011;7429;52.498;13.480;2023-05-07T07:33:21;9.73;;;8.57;;
14681;SDS011;7429;52.498;13.480;2023-05-07T07:36:25;8.77;;;8.07;;
14681;SDS011;7429;52.498;13.480;2023-05-07T07:39:47;7.53;;;6.87;;
14681;SDS011;7429;52.498;13.480;2023-05-07T07:42:50;8.33;;;7.23;;
14681;SDS011;7429;52.498;13.480;2023-05-07T07:45:54;7.97;;;7.17;;
14681;SDS011;7429;52.498;13.480;2023-05-07T07:48:59;7.20;;;6.60;;
14681;SDS011;7429;52.498;13.480;2023-05-07T07:52:03;8.77;;;7.30;;
14681;SDS011;7429;52.498;13.480;2023-05-07T07:55:09;8.27;;;7.47;;
14681;SDS011;7429;52.498;13.480;2023-05-07T07:58:14;8.30;;;7.50;;
14681;SDS011;7429;52.498;13.480;2023-05-07T08:01:17;8.00;;;7.27;;
14681;SDS011;7429;52.498;13.480;2023-05-07T08:04:23;7.83;;;7.20;;
14681;SDS011;7429;52.498;13.480;2023-05-07T08:07:28;7.40;;;6.77;;
14681;SDS011;7429;52.498;13.480;2023-05-07T08:10:32;8.27;;;7.57;;
14681;SDS011;7429;52.498;13.480;2023-05-07T08:13:45;6.73;;;6.13;;
14681;SDS011;7429;52.498;13.480;2023-05-07T08:16:49;5.80;;;5.37;;
14681;SDS011;7429;52.498;13.480;2023-05-07T08:19:54;5.97;;;5.47;;
14681;SDS011;7429;52.498;13.480;2023-05-07T08:22:57;7.53;;;6.07;;
14681;SDS011;7429;52.498;13.480;2023-05-07T08:26:01;6.60;;;4.97;;
14681;SDS011;7429;52.498;13.480;2023-05-07T08:29:04;6.43;;;5.90;;
14681;SDS011;7429;52.498;13.480;2023-05-07T08:32:08;6.83;;;6.17;;
14681;SDS011;7429;52.498;13.480;2023-05-07T08:35:12;7.73;;;5.27;;
14681;SDS011;7429;52.498;13.480;2023-05-07T08:38:16;5.63;;;5.13;;
14681;SDS011;7429;52.498;13.480;2023-05-07T08:41:22;6.97;;;5.63;;
14681;SDS011;7429;52.498;13.480;2023-05-07T08:44:25;6.83;;;4.97;;
14681;SDS011;7429;52.498;13.480;2023-05-07T08:47:33;5.87;;;5.00;;
14681;SDS011;7429;52.498;13.480;2023-05-07T08:50:44;7.27;;;5.30;;
14681;SDS011;7429;52.498;13.480;2023-05-07T08:53:48;6.33;;;5.50;;
14681;SDS011;7429;52.498;13.480;2023-05-07T08:56:59;7.07;;;6.20;;
14681;SDS011;7429;52.498;13.480;2023-05-07T09:00:02;6.75;;;5.95;;
14681;SDS011;7429;52.498;13.480;2023-05-07T09:03:09;5.00;;;4.60;;
14681;SDS011;7429;52.498;13.480;2023-05-07T09:06:18;8.00;;;5.13;;
14681;SDS011;7429;52.498;13.480;2023-05-07T09:09:21;5.97;;;5.47;;
14681;SDS011;7429;52.498;13.480;2023-05-07T09:12:27;5.37;;;4.93;;
14681;SDS011;7429;52.498;13.480;2023-05-07T09:15:32;28.27;;;5.60;;
14681;SDS011;7429;52.498;13.480;2023-05-07T09:18:35;5.45;;;4.95;;
14681;SDS011;7429;52.498;13.480;2023-05-07T09:21:47;8.27;;;5.28;;
14681;SDS011;7429;52.498;13.480;2023-05-07T09:24:51;5.40;;;4.93;;
14681;SDS011;7429;52.498;13.480;2023-05-07T09:27:58;6.47;;;5.13;;
14681;SDS011;7429;52.498;13.480;2023-05-07T09:31:03;6.32;;;4.75;;
14681;SDS011;7429;52.498;13.480;2023-05-07T09:34:07;11.65;;;4.75;;
14681;SDS011;7429;52.498;13.480;2023-05-07T09:37:14;6.53;;;5.22;;
14681;SDS011;7429;52.498;13.480;2023-05-07T09:40:20;6.45;;;4.80;;
14681;SDS011;7429;52.498;13.480;2023-05-07T09:43:25;4.68;;;4.13;;
14681;SDS011;7429;52.498;13.480;2023-05-07T09:46:31;5.20;;;4.70;;
14681;SDS011;7429;52.498;13.480;2023-05-07T09:49:42;4.77;;;4.23;;
14681;SDS011;7429;52.498;13.480;2023-05-07T09:52:55;4.72;;;4.32;;
14681;SDS011;7429;52.498;13.480;2023-05-07T09:55:59;3.50;;;3.20;;
14681;SDS011;7429;52.498;13.480;2023-05-07T09:59:05;4.60;;;3.92;;
14681;SDS011;7429;52.498;13.480;2023-05-07T10:02:10;5.07;;;3.67;;
14681;SDS011;7429;52.498;13.480;2023-05-07T10:05:21;4.00;;;3.70;;
14681;SDS011;7429;52.498;13.480;2023-05-07T10:08:29;3.35;;;3.10;;
14681;SDS011;7429;52.498;13.480;2023-05-07T10:11:37;5.85;;;3.85;;
14681;SDS011;7429;52.498;13.480;2023-05-07T10:14:41;3.80;;;3.50;;
14681;SDS011;7429;52.498;13.480;2023-05-07T10:17:44;4.20;;;3.40;;
14681;SDS011;7429;52.498;13.480;2023-05-07T10:20:49;5.50;;;5.10;;
14681;SDS011;7429;52.498;13.480;2023-05-07T10:23:58;3.25;;;3.05;;
14681;SDS011;7429;52.498;13.480;2023-05-07T10:27:09;3.85;;;3.42;;
14681;SDS011;7429;52.498;13.480;2023-05-07T10:30:22;4.05;;;3.63;;
14681;SDS011;7429;52.498;13.480;2023-05-07T10:33:39;3.58;;;2.78;;
14681;SDS011;7429;52.498;13.480;2023-05-07T10:36:44;3.30;;;3.10;;
14681;SDS011;7429;52.498;13.480;2023-05-07T10:39:49;3.42;;;3.13;;
14681;SDS011;7429;52.498;13.480;2023-05-07T10:42:55;3.55;;;3.25;;
14681;SDS011;7429;52.498;13.480;2023-05-07T10:46:10;3.38;;;3.13;;
14681;SDS011;7429;52.498;13.480;2023-05-07T10:49:20;4.35;;;3.95;;
14681;SDS011;7429;52.498;13.480;2023-05-07T10:52:32;3.67;;;3.38;;
14681;SDS011;7429;52.498;13.480;2023-05-07T10:55:47;5.60;;;3.10;;
14681;SDS011;7429;52.498;13.480;2023-05-07T11:03:11;3.35;;;3.15;;
14681;SDS011;7429;52.498;13.480;2023-05-07T11:06:41;3.72;;;3.33;;
14681;SDS011;7429;52.498;13.480;2023-05-07T11:09:54;3.83;;;3.63;;
14681;SDS011;7429;52.498;13.480;2023-05-07T11:13:42;4.88;;;3.45;;
14681;SDS011;7429;52.498;13.480;2023-05-07T11:17:10;4.32;;;3.67;;
14681;SDS011;7429;52.498;13.480;2023-05-07T11:20:22;8.43;;;3.22;;
14681;SDS011;7429;52.498;13.480;2023-05-07T11:24:20;4.20;;;3.30;;
14681;SDS011;7429;52.498;13.480;2023-05-07T11:27:29;3.80;;;3.50;;
14681;SDS011;7429;52.498;13.480;2023-05-07T11:30:32;4.45;;;4.07;;
14681;SDS011;7429;52.498;13.480;2023-05-07T11:33:36;6.40;;;4.40;;
14681;SDS011;7429;52.498;13.480;2023-05-07T11:36:45;4.60;;;3.53;;
14681;SDS011;7429;52.498;13.480;2023-05-07T11:40:03;3.45;;;3.25;;
14681;SDS011;7429;52.498;13.480;2023-05-07T11:43:10;3.90;;;3.60;;
14681;SDS011;7429;52.498;13.480;2023-05-07T11:46:13;4.40;;;3.60;;
14681;SDS011;7429;52.498;13.480;2023-05-07T11:49:16;3.55;;;3.28;;
14681;SDS011;7429;52.498;13.480;2023-05-07T11:52:22;4.70;;;3.53;;
14681;SDS011;7429;52.498;13.480;2023-05-07T11:55:27;3.53;;;3.22;;
14681;SDS011;7429;52.498;13.480;2023-05-07T11:58:30;3.97;;;3.67;;
14681;SDS011;7429;52.498;13.480;2023-05-07T12:01:35;3.92;;;3.60;;
14681;SDS011;7429;52.498;13.480;2023-05-07T12:04:38;3.58;;;3.35;;
14681;SDS011;7429;52.498;13.480;2023-05-07T12:07:43;3.75;;;3.45;;
14681;SDS011;7429;52.498;13.480;2023-05-07T12:10:49;3.65;;;3.08;;
14681;SDS011;7429;52.498;13.480;2023-05-07T12:13:53;3.20;;;2.90;;
14681;SDS011;7429;52.498;13.480;2023-05-07T12:17:00;3.50;;;3.10;;
14681;SDS011;7429;52.498;13.480;2023-05-07T12:20:05;4.50;;;3.67;;
14681;SDS011;7429;52.498;13.480;2023-05-07T12:23:11;4.32;;;3.53;;
14681;SDS011;7429;52.498;13.480;2023-05-07T12:26:15;4.18;;;3.50;;
14681;SDS011;7429;52.498;13.480;2023-05-07T12:29:21;3.60;;;3.40;;
14681;SDS011;7429;52.498;13.480;2023-05-07T12:32:24;3.85;;;3.22;;
14681;SDS011;7429;52.498;13.480;2023-05-07T12:35:27;3.50;;;3.20;;
14681;SDS011;7429;52.498;13.480;2023-05-07T12:38:35;3.25;;;3.00;;
14681;SDS011;7429;52.498;13.480;2023-05-07T12:41:53;4.07;;;3.67;;
14681;SDS011;7429;52.498;13.480;2023-05-07T12:44:57;3.05;;;2.83;;
14681;SDS011;7429;52.498;13.480;2023-05-07T12:48:01;3.50;;;3.25;;
14681;SDS011;7429;52.498;13.480;2023-05-07T12:51:05;8.98;;;8.15;;
14681;SDS011;7429;52.498;13.480;2023-05-07T12:54:10;4.40;;;4.00;;
14681;SDS011;7429;52.498;13.480;2023-05-07T12:57:14;14.73;;;13.23;;
14681;SDS011;7429;52.498;13.480;2023-05-07T13:00:17;9.38;;;8.48;;
14681;SDS011;7429;52.498;13.480;2023-05-07T13:03:21;6.00;;;5.40;;
14681;SDS011;7429;52.498;13.480;2023-05-07T13:06:26;4.90;;;4.47;;
14681;SDS011;7429;52.498;13.480;2023-05-07T13:09:32;4.00;;;3.70;;
14681;SDS011;7429;52.498;13.480;2023-05-07T13:12:35;3.28;;;3.10;;
14681;SDS011;7429;52.498;13.480;2023-05-07T13:15:38;5.00;;;4.50;;
14681;SDS011;7429;52.498;13.480;2023-05-07T13:18:41;3.70;;;3.42;;
14681;SDS011;7429;52.498;13.480;2023-05-07T13:21:47;3.67;;;3.38;;
14681;SDS011;7429;52.498;13.480;2023-05-07T13:24:52;3.53;;;3.22;;
14681;SDS011;7429;52.498;13.480;2023-05-07T13:27:57;4.22;;;3.30;;
14681;SDS011;7429;52.498;13.480;2023-05-07T13:31:10;3.20;;;3.00;;
14681;SDS011;7429;52.498;13.480;2023-05-07T13:34:14;4.05;;;3.72;;
14681;SDS011;7429;52.498;13.480;2023-05-07T13:37:17;4.18;;;3.78;;
14681;SDS011;7429;52.498;13.480;2023-05-07T13:40:21;8.65;;;3.92;;
14681;SDS011;7429;52.498;13.480;2023-05-07T13:43:25;3.45;;;2.60;;
14681;SDS011;7429;52.498;13.480;2023-05-07T13:46:28;3.60;;;3.30;;
14681;SDS011;7429;52.498;13.480;2023-05-07T13:49:31;3.53;;;3.22;;
14681;SDS011;7429;52.498;13.480;2023-05-07T13:52:35;3.00;;;2.80;;
14681;SDS011;7429;52.498;13.480;2023-05-07T13:55:39;5.95;;;3.30;;
14681;SDS011;7429;52.498;13.480;2023-05-07T13:58:45;3.50;;;3.20;;
14681;SDS011;7429;52.498;13.480;2023-05-07T14:02:00;3.90;;;2.95;;
14681;SDS011;7429;52.498;13.480;2023-05-07T14:05:03;4.18;;;3.17;;
14681;SDS011;7429;52.498;13.480;2023-05-07T14:08:07;3.70;;;3.50;;
14681;SDS011;7429;52.498;13.480;2023-05-07T14:11:12;4.20;;;3.28;;
14681;SDS011;7429;52.498;13.480;2023-05-07T14:14:15;4.05;;;3.08;;
14681;SDS011;7429;52.498;13.480;2023-05-07T14:17:18;3.70;;;3.40;;
14681;SDS011;7429;52.498;13.480;2023-05-07T14:20:24;3.60;;;3.40;;
14681;SDS011;7429;52.498;13.480;2023-05-07T14:23:28;3.20;;;2.90;;
14681;SDS011;7429;52.498;13.480;2023-05-07T14:26:32;4.13;;;3.30;;
14681;SDS011;7429;52.498;13.480;2023-05-07T14:29:36;3.70;;;3.40;;
14681;SDS011;7429;52.498;13.480;2023-05-07T14:32:39;3.20;;;2.90;;
14681;SDS011;7429;52.498;13.480;2023-05-07T14:35:42;3.25;;;3.05;;
14681;SDS011;7429;52.498;13.480;2023-05-07T14:38:49;3.35;;;3.05;;
14681;SDS011;7429;52.498;13.480;2023-05-07T14:41:55;4.07;;;3.05;;
14681;SDS011;7429;52.498;13.480;2023-05-07T14:45:02;3.50;;;3.20;;
14681;SDS011;7429;52.498;13.480;2023-05-07T14:48:06;3.13;;;2.83;;
14681;SDS011;7429;52.498;13.480;2023-05-07T14:51:11;5.68;;;3.20;;
14681;SDS011;7429;52.498;13.480;2023-05-07T14:54:15;3.45;;;3.15;;
14681;SDS011;7429;52.498;13.480;2023-05-07T14:57:20;3.70;;;3.08;;
14681;SDS011;7429;52.498;13.480;2023-05-07T15:00:23;3.40;;;3.00;;
14681;SDS011;7429;52.498;13.480;2023-05-07T15:03:26;2.90;;;2.80;;
14681;SDS011;7429;52.498;13.480;2023-05-07T15:06:30;7.80;;;3.67;;
14681;SDS011;7429;52.498;13.480;2023-05-07T15:09:33;3.10;;;2.88;;
14681;SDS011;7429;52.498;13.480;2023-05-07T15:12:38;3.17;;;2.90;;
14681;SDS011;7429;52.498;13.480;2023-05-07T15:15:41;3.25;;;3.00;;
14681;SDS011;7429;52.498;13.480;2023-05-07T15:18:45;3.30;;;3.08;;
14681;SDS011;7429;52.498;13.480;2023-05-07T15:21:51;2.97;;;2.78;;
14681;SDS011;7429;52.498;13.480;2023-05-07T15:24:54;2.90;;;2.70;;
14681;SDS011;7429;52.498;13.480;2023-05-07T15:28:00;5.03;;;3.30;;
14681;SDS011;7429;52.498;13.480;2023-05-07T15:31:03;2.70;;;2.50;;
14681;SDS011;7429;52.498;13.480;2023-05-07T15:34:06;3.63;;;2.80;;
14681;SDS011;7429;52.498;13.480;2023-05-07T15:37:10;2.65;;;2.55;;
14681;SDS011;7429;52.498;13.480;2023-05-07T15:40:13;3.28;;;3.08;;
14681;SDS011;7429;52.498;13.480;2023-05-07T15:43:17;3.15;;;2.67;;
14681;SDS011;7429;52.498;13.480;2023-05-07T15:46:21;3.13;;;2.92;;
14681;SDS011;7429;52.498;13.480;2023-05-07T15:49:26;2.95;;;2.80;;
14681;SDS011;7429;52.498;13.480;2023-05-07T15:52:29;3.03;;;2.83;;
14681;SDS011;7429;52.498;13.480;2023-05-07T15:55:32;3.22;;;2.90;;
14681;SDS011;7429;52.498;13.480;2023-05-07T15:58:37;4.80;;;2.97;;
14681;SDS011;7429;52.498;13.480;2023-05-07T16:01:40;3.10;;;2.90;;
14681;SDS011;7429;52.498;13.480;2023-05-07T16:04:44;3.17;;;2.75;;
14681;SDS011;7429;52.498;13.480;2023-05-07T16:07:48;5.00;;;3.42;;
14681;SDS011;7429;52.498;13.480;2023-05-07T16:10:51;3.28;;;3.08;;
14681;SDS011;7429;52.498;13.480;2023-05-07T16:13:56;3.45;;;3.03;;
14681;SDS011;7429;52.498;13.480;2023-05-07T16:17:01;3.08;;;2.78;;
14681;SDS011;7429;52.498;13.480;2023-05-07T16:20:04;3.15;;;2.95;;
14681;SDS011;7429;52.498;13.480;2023-05-07T16:23:10;3.38;;;3.08;;
14681;SDS011;7429;52.498;13.480;2023-05-07T16:26:27;3.05;;;2.85;;
14681;SDS011;7429;52.498;13.480;2023-05-07T16:29:32;3.67;;;3.38;;
14681;SDS011;7429;52.498;13.480;2023-05-07T16:32:35;3.45;;;3.25;;
14681;SDS011;7429;52.498;13.480;2023-05-07T16:35:38;4.30;;;2.55;;
14681;SDS011;7429;52.498;13.480;2023-05-07T16:38:41;4.28;;;3.97;;
14681;SDS011;7429;52.498;13.480;2023-05-07T16:41:45;3.28;;;3.08;;
14681;SDS011;7429;52.498;13.480;2023-05-07T16:44:52;3.00;;;2.80;;
14681;SDS011;7429;52.498;13.480;2023-05-07T16:47:55;3.30;;;2.88;;
14681;SDS011;7429;52.498;13.480;2023-05-07T16:50:59;3.83;;;3.40;;
14681;SDS011;7429;52.498;13.480;2023-05-07T16:54:02;3.10;;;2.90;;
14681;SDS011;7429;52.498;13.480;2023-05-07T16:57:05;2.93;;;2.73;;
14681;SDS011;7429;52.498;13.480;2023-05-07T17:00:14;3.80;;;3.50;;
14681;SDS011;7429;52.498;13.480;2023-05-07T17:03:21;2.75;;;2.58;;
14681;SDS011;7429;52.498;13.480;2023-05-07T17:06:25;4.13;;;2.58;;
14681;SDS011;7429;52.498;13.480;2023-05-07T17:09:28;3.03;;;2.83;;
14681;SDS011;7429;52.498;13.480;2023-05-07T17:12:31;4.57;;;2.95;;
14681;SDS011;7429;52.498;13.480;2023-05-07T17:15:37;3.30;;;3.10;;
14681;SDS011;7429;52.498;13.480;2023-05-07T17:18:43;3.10;;;2.90;;
14681;SDS011;7429;52.498;13.480;2023-05-07T17:21:54;3.40;;;3.17;;
14681;SDS011;7429;52.498;13.480;2023-05-07T17:24:58;4.43;;;3.43;;
14681;SDS011;7429;52.498;13.480;2023-05-07T17:28:04;3.93;;;3.53;;
14681;SDS011;7429;52.498;13.480;2023-05-07T17:31:09;3.87;;;3.67;;
14681;SDS011;7429;52.498;13.480;2023-05-07T17:34:12;3.40;;;3.10;;
14681;SDS011;7429;52.498;13.480;2023-05-07T17:37:15;3.27;;;3.00;;
14681;SDS011;7429;52.498;13.480;2023-05-07T17:40:21;3.83;;;3.13;;
14681;SDS011;7429;52.498;13.480;2023-05-07T17:43:25;3.40;;;3.10;;
14681;SDS011;7429;52.498;13.480;2023-05-07T17:46:29;3.60;;;3.30;;
14681;SDS011;7429;52.498;13.480;2023-05-07T17:49:33;4.10;;;3.10;;
14681;SDS011;7429;52.498;13.480;2023-05-07T17:52:55;3.53;;;3.30;;
14681;SDS011;7429;52.498;13.480;2023-05-07T17:56:01;6.10;;;3.00;;
14681;SDS011;7429;52.498;13.480;2023-05-07T17:59:04;3.23;;;3.03;;
14681;SDS011;7429;52.498;13.480;2023-05-07T18:02:20;4.10;;;3.80;;
14681;SDS011;7429;52.498;13.480;2023-05-07T18:05:42;3.03;;;2.77;;
14681;SDS011;7429;52.498;13.480;2023-05-07T18:08:45;3.30;;;3.10;;
14681;SDS011;7429;52.498;13.480;2023-05-07T18:11:52;4.17;;;3.87;;
14681;SDS011;7429;52.498;13.480;2023-05-07T18:14:58;5.27;;;4.73;;
14681;SDS011;7429;52.498;13.480;2023-05-07T18:18:03;3.50;;;3.20;;
14681;SDS011;7429;52.498;13.480;2023-05-07T18:21:09;4.80;;;3.10;;
14681;SDS011;7429;52.498;13.480;2023-05-07T18:24:19;3.43;;;3.00;;
14681;SDS011;7429;52.498;13.480;2023-05-07T18:27:26;3.97;;;3.47;;